sensor_id;sensor_type;location;lat;lon;timestamp;P1;durP1;ratioP1;P2;durP2;ratioP2
13368;SDS011;6753;52.520;13.450;2023-02-26T00:00:07;815.17;;;726.75;;
13368;SDS011;6753;52.520;13.450;2023-02-26T00:00:24;818.53;;;730.10;;
13368;SDS011;6753;52.520;13.450;2023-02-26T00:00:36;819.35;;;730.88;;
13368;SDS011;6753;52.520;13.450;2023-02-26T00:00:46;819.33;;;731.03;;
13368;SDS011;6753;52.520;13.450;2023-02-26T00:00:57;821.75;;;733.05;;
13368;SDS011;6753;52.520;13.450;2023-02-26T00:01:11;825.03;;;736.15;;
13368;SDS011;6753;52.520;13.450;2023-02-26T00:01:23;827.58;;;738.22;;
13368;SDS011;6753;52.520;13.450;2023-02-26T00:01:35;831.30;;;741.45;;
13368;SDS011;6753;52.520;13.450;2023-02-26T00:01:46;832.33;;;742.40;;
13368;SDS011;6753;52.520;13.450;2023-02-26T00:01:59;835.70;;;745.40;;
13368;SDS011;6753;52.520;13.450;2023-02-26T00:02:11;831.45;;;741.50;;
13368;SDS011;6753;52.520;13.450;2023-02-26T00:02:22;830.80;;;740.63;;
13368;SDS011;6753;52.520;13.450;2023-02-26T00:02:32;833.70;;;743.40;;
13368;SDS011;6753;52.520;13.450;2023-02-26T00:02:43;840.47;;;749.28;;
13368;SDS011;6753;52.520;13.450;2023-02-26T00:02:55;846.15;;;754.03;;
13368;SDS011;6753;52.520;13.450;2023-02-26T00:03:06;852.42;;;759.45;;
13368;SDS011;6753;52.520;13.450;2023-02-26T00:03:17;856.72;;;763.20;;
13368;SDS011;6753;52.520;13.450;2023-02-26T00:03:28;862.97;;;768.42;;
13368;SDS011;6753;52.520;13.450;2023-02-26T00:03:40;864.85;;;769.92;;
13368;SDS011;6753;52.520;13.450;2023-02-26T00:03:51;864.70;;;769.72;;
13368;SDS011;6753;52.520;13.450;2023-02-26T00:04:04;862.60;;;767.78;;
13368;SDS011;6753;52.520;13.450;2023-02-26T00:04:16;865.28;;;770.15;;
13368;SDS011;6753;52.520;13.450;2023-02-26T00:04:27;865.20;;;770.40;;
13368;SDS011;6753;52.520;13.450;2023-02-26T00:04:37;866.38;;;771.47;;
13368;SDS011;6753;52.520;13.450;2023-02-26T00:04:49;865.22;;;770.38;;
13368;SDS011;6753;52.520;13.450;2023-02-26T00:05:00;868.47;;;773.10;;
13368;SDS011;6753;52.520;13.450;2023-02-26T00:05:11;869.20;;;773.80;;
13368;SDS011;6753;52.520;13.450;2023-02-26T00:05:22;872.22;;;776.15;;
13368;SDS011;6753;52.520;13.450;2023-02-26T00:05:33;878.72;;;781.67;;
13368;SDS011;6753;52.520;13.450;2023-02-26T00:05:44;891.28;;;792.45;;
13368;SDS011;6753;52.520;13.450;2023-02-26T00:05:58;908.60;;;806.67;;
13368;SDS011;6753;52.520;13.450;2023-02-26T00:06:10;928.08;;;822.40;;
13368;SDS011;6753;52.520;13.450;2023-02-26T00:06:22;935.88;;;830.67;;
13368;SDS011;6753;52.520;13.450;2023-02-26T00:06:35;937.80;;;833.55;;
13368;SDS011;6753;52.520;13.450;2023-02-26T00:06:47;920.92;;;819.47;;
13368;SDS011;6753;52.520;13.450;2023-02-26T00:07:01;906.45;;;807.30;;
13368;SDS011;6753;52.520;13.450;2023-02-26T00:07:14;900.88;;;802.92;;
13368;SDS011;6753;52.520;13.450;2023-02-26T00:07:24;898.25;;;801.13;;
13368;SDS011;6753;52.520;13.450;2023-02-26T00:07:38;903.45;;;805.85;;
13368;SDS011;6753;52.520;13.450;2023-02-26T00:07:49;910.63;;;812.03;;
13368;SDS011;6753;52.520;13.450;2023-02-26T00:08:00;916.35;;;816.63;;
13368;SDS011;6753;52.520;13.450;2023-02-26T00:08:14;917.70;;;817.55;;
13368;SDS011;6753;52.520;13.450;2023-02-26T00:08:25;914.20;;;814.17;;
13368;SDS011;6753;52.520;13.450;2023-02-26T00:08:36;909.38;;;809.92;;
13368;SDS011;6753;52.520;13.450;2023-02-26T00:08:47;909.92;;;810.33;;
13368;SDS011;6753;52.520;13.450;2023-02-26T00:08:58;911.23;;;812.03;;
13368;SDS011;6753;52.520;13.450;2023-02-26T00:09:10;909.70;;;810.55;;
13368;SDS011;6753;52.520;13.450;2023-02-26T00:09:21;911.93;;;812.87;;
13368;SDS011;6753;52.520;13.450;2023-02-26T00:09:32;916.10;;;816.47;;
13368;SDS011;6753;52.520;13.450;2023-02-26T00:09:43;919.33;;;819.50;;
13368;SDS011;6753;52.520;13.450;2023-02-26T00:09:54;919.67;;;819.75;;
13368;SDS011;6753;52.520;13.450;2023-02-26T00:10:05;919.38;;;819.58;;
13368;SDS011;6753;52.520;13.450;2023-02-26T00:10:17;919.88;;;820.17;;
13368;SDS011;6753;52.520;13.450;2023-02-26T00:10:28;917.47;;;817.88;;
13368;SDS011;6753;52.520;13.450;2023-02-26T00:10:40;917.60;;;818.00;;
13368;SDS011;6753;52.520;13.450;2023-02-26T00:10:51;918.47;;;818.78;;
13368;SDS011;6753;52.520;13.450;2023-02-26T00:11:05;911.08;;;812.05;;
13368;SDS011;6753;52.520;13.450;2023-02-26T00:11:18;908.38;;;809.60;;
13368;SDS011;6753;52.520;13.450;2023-02-26T00:11:30;907.20;;;808.75;;
13368;SDS011;6753;52.520;13.450;2023-02-26T00:11:41;901.80;;;804.08;;
13368;SDS011;6753;52.520;13.450;2023-02-26T00:11:52;895.65;;;798.75;;
13368;SDS011;6753;52.520;13.450;2023-02-26T00:12:04;897.40;;;800.38;;
13368;SDS011;6753;52.520;13.450;2023-02-26T00:12:16;897.55;;;800.55;;
13368;SDS011;6753;52.520;13.450;2023-02-26T00:12:27;895.92;;;799.17;;
13368;SDS011;6753;52.520;13.450;2023-02-26T00:12:38;896.83;;;799.95;;
13368;SDS011;6753;52.520;13.450;2023-02-26T00:12:49;901.50;;;804.00;;
13368;SDS011;6753;52.520;13.450;2023-02-26T00:13:02;902.78;;;805.35;;
13368;SDS011;6753;52.520;13.450;2023-02-26T00:13:13;906.88;;;808.78;;
13368;SDS011;6753;52.520;13.450;2023-02-26T00:13:26;910.42;;;811.50;;
13368;SDS011;6753;52.520;13.450;2023-02-26T00:13:37;909.80;;;810.85;;
13368;SDS011;6753;52.520;13.450;2023-02-26T00:13:50;912.92;;;813.28;;
13368;SDS011;6753;52.520;13.450;2023-02-26T00:14:02;916.47;;;816.17;;
13368;SDS011;6753;52.520;13.450;2023-02-26T00:14:13;919.00;;;818.60;;
13368;SDS011;6753;52.520;13.450;2023-02-26T00:14:26;917.40;;;817.53;;
13368;SDS011;6753;52.520;13.450;2023-02-26T00:14:38;917.20;;;817.65;;
13368;SDS011;6753;52.520;13.450;2023-02-26T00:14:49;915.17;;;816.25;;
13368;SDS011;6753;52.520;13.450;2023-02-26T00:15:01;911.53;;;813.05;;
13368;SDS011;6753;52.520;13.450;2023-02-26T00:15:13;906.42;;;808.60;;
13368;SDS011;6753;52.520;13.450;2023-02-26T00:15:26;905.15;;;807.45;;
13368;SDS011;6753;52.520;13.450;2023-02-26T00:15:38;904.88;;;807.00;;
13368;SDS011;6753;52.520;13.450;2023-02-26T00:15:49;903.78;;;805.58;;
13368;SDS011;6753;52.520;13.450;2023-02-26T00:16:09;907.97;;;809.05;;
13368;SDS011;6753;52.520;13.450;2023-02-26T00:16:26;910.53;;;811.05;;
13368;SDS011;6753;52.520;13.450;2023-02-26T00:16:40;913.95;;;814.20;;
13368;SDS011;6753;52.520;13.450;2023-02-26T00:16:55;912.55;;;813.08;;
13368;SDS011;6753;52.520;13.450;2023-02-26T00:17:22;908.42;;;809.95;;
13368;SDS011;6753;52.520;13.450;2023-02-26T00:17:41;899.50;;;802.22;;
13368;SDS011;6753;52.520;13.450;2023-02-26T00:17:58;896.53;;;799.45;;
13368;SDS011;6753;52.520;13.450;2023-02-26T00:18:14;892.45;;;795.70;;
13368;SDS011;6753;52.520;13.450;2023-02-26T00:18:26;893.70;;;796.80;;
13368;SDS011;6753;52.520;13.450;2023-02-26T00:18:38;890.92;;;794.55;;
13368;SDS011;6753;52.520;13.450;2023-02-26T00:18:49;889.05;;;793.22;;
13368;SDS011;6753;52.520;13.450;2023-02-26T00:19:02;890.80;;;795.00;;
13368;SDS011;6753;52.520;13.450;2023-02-26T00:19:14;892.03;;;796.40;;
13368;SDS011;6753;52.520;13.450;2023-02-26T00:19:25;894.22;;;798.05;;
13368;SDS011;6753;52.520;13.450;2023-02-26T00:19:37;898.58;;;801.53;;
13368;SDS011;6753;52.520;13.450;2023-02-26T00:19:49;901.80;;;804.05;;
13368;SDS011;6753;52.520;13.450;2023-02-26T00:20:00;902.17;;;804.28;;
13368;SDS011;6753;52.520;13.450;2023-02-26T00:20:11;901.85;;;804.03;;
13368;SDS011;6753;52.520;13.450;2023-02-26T00:20:23;901.22;;;803.63;;
13368;SDS011;6753;52.520;13.450;2023-02-26T00:20:34;904.60;;;806.40;;
13368;SDS011;6753;52.520;13.450;2023-02-26T00:20:46;907.30;;;808.65;;
13368;SDS011;6753;52.520;13.450;2023-02-26T00:20:58;913.67;;;814.22;;
13368;SDS011;6753;52.520;13.450;2023-02-26T00:21:12;925.50;;;823.88;;
13368;SDS011;6753;52.520;13.450;2023-02-26T00:21:26;936.85;;;833.53;;
13368;SDS011;6753;52.520;13.450;2023-02-26T00:21:38;941.42;;;837.58;;
13368;SDS011;6753;52.520;13.450;2023-02-26T00:21:49;940.60;;;836.85;;
13368;SDS011;6753;52.520;13.450;2023-02-26T00:22:01;940.13;;;836.55;;
13368;SDS011;6753;52.520;13.450;2023-02-26T00:22:12;934.03;;;831.47;;
13368;SDS011;6753;52.520;13.450;2023-02-26T00:22:24;929.72;;;827.92;;
13368;SDS011;6753;52.520;13.450;2023-02-26T00:22:36;927.70;;;826.13;;
13368;SDS011;6753;52.520;13.450;2023-02-26T00:22:47;926.63;;;825.40;;
13368;SDS011;6753;52.520;13.450;2023-02-26T00:22:59;929.33;;;827.92;;
13368;SDS011;6753;52.520;13.450;2023-02-26T00:23:10;929.10;;;828.10;;
13368;SDS011;6753;52.520;13.450;2023-02-26T00:23:23;928.85;;;828.00;;
13368;SDS011;6753;52.520;13.450;2023-02-26T00:23:34;928.58;;;827.80;;
13368;SDS011;6753;52.520;13.450;2023-02-26T00:23:45;929.85;;;828.95;;
13368;SDS011;6753;52.520;13.450;2023-02-26T00:23:56;926.92;;;826.50;;
13368;SDS011;6753;52.520;13.450;2023-02-26T00:24:09;925.80;;;825.10;;
13368;SDS011;6753;52.520;13.450;2023-02-26T00:24:20;925.08;;;824.55;;
13368;SDS011;6753;52.520;13.450;2023-02-26T00:24:30;923.27;;;822.70;;
13368;SDS011;6753;52.520;13.450;2023-02-26T00:24:41;924.13;;;823.55;;
13368;SDS011;6753;52.520;13.450;2023-02-26T00:24:52;927.20;;;825.97;;
13368;SDS011;6753;52.520;13.450;2023-02-26T00:25:03;928.97;;;827.42;;
13368;SDS011;6753;52.520;13.450;2023-02-26T00:25:14;929.47;;;827.97;;
13368;SDS011;6753;52.520;13.450;2023-02-26T00:25:25;930.00;;;828.75;;
13368;SDS011;6753;52.520;13.450;2023-02-26T00:25:37;929.20;;;828.28;;
13368;SDS011;6753;52.520;13.450;2023-02-26T00:25:47;925.35;;;824.97;;
13368;SDS011;6753;52.520;13.450;2023-02-26T00:25:58;928.38;;;827.78;;
13368;SDS011;6753;52.520;13.450;2023-02-26T00:26:09;933.38;;;832.05;;
13368;SDS011;6753;52.520;13.450;2023-02-26T00:26:20;941.20;;;838.75;;
13368;SDS011;6753;52.520;13.450;2023-02-26T00:26:32;942.13;;;839.42;;
13368;SDS011;6753;52.520;13.450;2023-02-26T00:26:44;943.78;;;840.45;;
13368;SDS011;6753;52.520;13.450;2023-02-26T00:26:54;943.80;;;840.35;;
13368;SDS011;6753;52.520;13.450;2023-02-26T00:27:05;944.33;;;840.47;;
13368;SDS011;6753;52.520;13.450;2023-02-26T00:27:17;945.10;;;840.70;;
13368;SDS011;6753;52.520;13.450;2023-02-26T00:27:28;953.88;;;847.22;;
13368;SDS011;6753;52.520;13.450;2023-02-26T00:27:39;982.20;;;862.83;;
13368;SDS011;6753;52.520;13.450;2023-02-26T00:27:50;1019.50;;;881.40;;
13368;SDS011;6753;52.520;13.450;2023-02-26T00:28:03;1039.07;;;890.63;;
13368;SDS011;6753;52.520;13.450;2023-02-26T00:28:14;1045.13;;;894.08;;
13368;SDS011;6753;52.520;13.450;2023-02-26T00:28:26;1033.85;;;886.60;;
13368;SDS011;6753;52.520;13.450;2023-02-26T00:28:38;1004.25;;;870.45;;
13368;SDS011;6753;52.520;13.450;2023-02-26T00:28:50;978.35;;;858.75;;
13368;SDS011;6753;52.520;13.450;2023-02-26T00:29:01;968.97;;;857.03;;
13368;SDS011;6753;52.520;13.450;2023-02-26T00:29:13;955.38;;;849.45;;
13368;SDS011;6753;52.520;13.450;2023-02-26T00:29:24;958.92;;;851.05;;
13368;SDS011;6753;52.520;13.450;2023-02-26T00:29:36;977.70;;;860.17;;
13368;SDS011;6753;52.520;13.450;2023-02-26T00:29:47;1002.88;;;872.53;;
13368;SDS011;6753;52.520;13.450;2023-02-26T00:29:59;1034.10;;;883.83;;
13368;SDS011;6753;52.520;13.450;2023-02-26T00:30:11;1079.85;;;904.15;;
13368;SDS011;6753;52.520;13.450;2023-02-26T00:30:22;1119.82;;;923.90;;
13368;SDS011;6753;52.520;13.450;2023-02-26T00:30:34;1148.68;;;939.17;;
13368;SDS011;6753;52.520;13.450;2023-02-26T00:30:45;1159.57;;;944.40;;
13368;SDS011;6753;52.520;13.450;2023-02-26T00:30:57;1126.63;;;932.67;;
13368;SDS011;6753;52.520;13.450;2023-02-26T00:31:08;1121.32;;;929.28;;
13368;SDS011;6753;52.520;13.450;2023-02-26T00:31:20;1114.82;;;928.30;;
13368;SDS011;6753;52.520;13.450;2023-02-26T00:31:33;1116.05;;;926.83;;
13368;SDS011;6753;52.520;13.450;2023-02-26T00:31:45;1094.07;;;917.20;;
13368;SDS011;6753;52.520;13.450;2023-02-26T00:31:57;1101.47;;;921.63;;
13368;SDS011;6753;52.520;13.450;2023-02-26T00:32:08;1083.75;;;917.03;;
13368;SDS011;6753;52.520;13.450;2023-02-26T00:32:20;1071.53;;;912.83;;
13368;SDS011;6753;52.520;13.450;2023-02-26T00:32:32;1055.28;;;907.55;;
13368;SDS011;6753;52.520;13.450;2023-02-26T00:32:44;1087.80;;;921.13;;
13368;SDS011;6753;52.520;13.450;2023-02-26T00:32:55;1127.70;;;932.53;;
13368;SDS011;6753;52.520;13.450;2023-02-26T00:33:06;1165.05;;;943.85;;
13368;SDS011;6753;52.520;13.450;2023-02-26T00:33:19;1184.90;;;949.15;;
13368;SDS011;6753;52.520;13.450;2023-02-26T00:33:30;1199.93;;;953.78;;
13368;SDS011;6753;52.520;13.450;2023-02-26T00:33:41;1209.65;;;954.55;;
13368;SDS011;6753;52.520;13.450;2023-02-26T00:33:54;1196.60;;;950.63;;
13368;SDS011;6753;52.520;13.450;2023-02-26T00:34:09;1199.55;;;951.88;;
13368;SDS011;6753;52.520;13.450;2023-02-26T00:34:22;1210.60;;;954.33;;
13368;SDS011;6753;52.520;13.450;2023-02-26T00:34:33;1212.95;;;954.33;;
13368;SDS011;6753;52.520;13.450;2023-02-26T00:34:46;1209.75;;;953.58;;
13368;SDS011;6753;52.520;13.450;2023-02-26T00:34:57;1194.82;;;948.15;;
13368;SDS011;6753;52.520;13.450;2023-02-26T00:35:10;1177.93;;;942.50;;
13368;SDS011;6753;52.520;13.450;2023-02-26T00:35:23;1142.75;;;929.50;;
13368;SDS011;6753;52.520;13.450;2023-02-26T00:35:35;1116.38;;;921.90;;
13368;SDS011;6753;52.520;13.450;2023-02-26T00:35:46;1103.25;;;916.95;;
13368;SDS011;6753;52.520;13.450;2023-02-26T00:35:59;1085.90;;;910.67;;
13368;SDS011;6753;52.520;13.450;2023-02-26T00:36:24;1057.75;;;901.80;;
13368;SDS011;6753;52.520;13.450;2023-02-26T00:36:43;1051.45;;;898.20;;
13368;SDS011;6753;52.520;13.450;2023-02-26T00:37:02;1064.47;;;902.75;;
13368;SDS011;6753;52.520;13.450;2023-02-26T00:37:25;1086.63;;;911.78;;
13368;SDS011;6753;52.520;13.450;2023-02-26T00:38:09;1106.60;;;916.42;;
13368;SDS011;6753;52.520;13.450;2023-02-26T00:38:26;1108.63;;;919.70;;
13368;SDS011;6753;52.520;13.450;2023-02-26T00:38:42;1115.63;;;924.35;;
13368;SDS011;6753;52.520;13.450;2023-02-26T00:39:01;1109.68;;;924.15;;
13368;SDS011;6753;52.520;13.450;2023-02-26T00:39:22;1095.50;;;922.00;;
13368;SDS011;6753;52.520;13.450;2023-02-26T00:39:47;1090.10;;;919.85;;
13368;SDS011;6753;52.520;13.450;2023-02-26T00:40:12;1102.07;;;925.53;;
13368;SDS011;6753;52.520;13.450;2023-02-26T00:40:33;1096.43;;;923.15;;
13368;SDS011;6753;52.520;13.450;2023-02-26T00:40:48;1087.50;;;918.97;;
13368;SDS011;6753;52.520;13.450;2023-02-26T00:41:02;1078.22;;;913.03;;
13368;SDS011;6753;52.520;13.450;2023-02-26T00:41:13;1074.55;;;910.92;;
13368;SDS011;6753;52.520;13.450;2023-02-26T00:41:28;1073.90;;;909.30;;
13368;SDS011;6753;52.520;13.450;2023-02-26T00:41:39;1074.38;;;910.40;;
13368;SDS011;6753;52.520;13.450;2023-02-26T00:41:51;1074.93;;;909.53;;
13368;SDS011;6753;52.520;13.450;2023-02-26T00:42:02;1074.85;;;911.15;;
13368;SDS011;6753;52.520;13.450;2023-02-26T00:42:13;1071.93;;;910.85;;
13368;SDS011;6753;52.520;13.450;2023-02-26T00:42:25;1071.07;;;910.30;;
13368;SDS011;6753;52.520;13.450;2023-02-26T00:42:37;1072.20;;;908.25;;
13368;SDS011;6753;52.520;13.450;2023-02-26T00:42:48;1072.93;;;908.15;;
13368;SDS011;6753;52.520;13.450;2023-02-26T00:43:00;1073.82;;;908.17;;
13368;SDS011;6753;52.520;13.450;2023-02-26T00:43:15;1069.80;;;906.28;;
13368;SDS011;6753;52.520;13.450;2023-02-26T00:43:32;1058.95;;;903.42;;
13368;SDS011;6753;52.520;13.450;2023-02-26T00:43:43;1052.30;;;901.53;;
13368;SDS011;6753;52.520;13.450;2023-02-26T00:43:55;1047.53;;;900.42;;
13368;SDS011;6753;52.520;13.450;2023-02-26T00:44:06;1045.70;;;901.28;;
13368;SDS011;6753;52.520;13.450;2023-02-26T00:44:18;1051.95;;;904.22;;
13368;SDS011;6753;52.520;13.450;2023-02-26T00:44:29;1055.63;;;908.60;;
13368;SDS011;6753;52.520;13.450;2023-02-26T00:44:41;1060.30;;;910.67;;
13368;SDS011;6753;52.520;13.450;2023-02-26T00:44:53;1066.50;;;912.33;;
13368;SDS011;6753;52.520;13.450;2023-02-26T00:45:04;1077.93;;;915.15;;
13368;SDS011;6753;52.520;13.450;2023-02-26T00:45:18;1087.90;;;919.63;;
13368;SDS011;6753;52.520;13.450;2023-02-26T00:45:30;1101.22;;;923.60;;
13368;SDS011;6753;52.520;13.450;2023-02-26T00:45:46;1113.18;;;928.38;;
13368;SDS011;6753;52.520;13.450;2023-02-26T00:46:06;1112.05;;;929.08;;
13368;SDS011;6753;52.520;13.450;2023-02-26T00:46:27;1097.13;;;921.42;;
13368;SDS011;6753;52.520;13.450;2023-02-26T00:46:47;1084.78;;;916.10;;
13368;SDS011;6753;52.520;13.450;2023-02-26T00:47:05;1083.55;;;917.55;;
13368;SDS011;6753;52.520;13.450;2023-02-26T00:47:24;1086.78;;;919.63;;
13368;SDS011;6753;52.520;13.450;2023-02-26T00:47:41;1081.88;;;918.33;;
13368;SDS011;6753;52.520;13.450;2023-02-26T00:48:01;1074.47;;;915.90;;
13368;SDS011;6753;52.520;13.450;2023-02-26T00:48:29;1071.72;;;914.67;;
13368;SDS011;6753;52.520;13.450;2023-02-26T00:48:52;1075.30;;;918.35;;
13368;SDS011;6753;52.520;13.450;2023-02-26T00:49:10;1075.75;;;917.42;;
13368;SDS011;6753;52.520;13.450;2023-02-26T00:49:31;1075.25;;;917.33;;
13368;SDS011;6753;52.520;13.450;2023-02-26T00:50:00;1079.30;;;917.30;;
13368;SDS011;6753;52.520;13.450;2023-02-26T00:50:24;1069.50;;;914.45;;
13368;SDS011;6753;52.520;13.450;2023-02-26T00:50:35;1071.50;;;913.45;;
13368;SDS011;6753;52.520;13.450;2023-02-26T00:50:54;1068.65;;;912.85;;
13368;SDS011;6753;52.520;13.450;2023-02-26T00:51:12;1075.57;;;916.15;;
13368;SDS011;6753;52.520;13.450;2023-02-26T00:51:29;1076.15;;;914.95;;
13368;SDS011;6753;52.520;13.450;2023-02-26T00:51:45;1070.45;;;912.58;;
13368;SDS011;6753;52.520;13.450;2023-02-26T00:52:00;1059.57;;;905.17;;
13368;SDS011;6753;52.520;13.450;2023-02-26T00:52:16;1055.93;;;904.60;;
13368;SDS011;6753;52.520;13.450;2023-02-26T00:52:38;1061.03;;;907.20;;
13368;SDS011;6753;52.520;13.450;2023-02-26T00:52:56;1070.28;;;913.25;;
13368;SDS011;6753;52.520;13.450;2023-02-26T00:53:14;1070.60;;;911.25;;
13368;SDS011;6753;52.520;13.450;2023-02-26T00:53:32;1061.03;;;905.72;;
13368;SDS011;6753;52.520;13.450;2023-02-26T00:53:48;1050.95;;;898.50;;
13368;SDS011;6753;52.520;13.450;2023-02-26T00:54:08;1045.68;;;897.00;;
13368;SDS011;6753;52.520;13.450;2023-02-26T00:54:26;1048.45;;;897.83;;
13368;SDS011;6753;52.520;13.450;2023-02-26T00:54:38;1052.28;;;899.80;;
13368;SDS011;6753;52.520;13.450;2023-02-26T00:54:49;1059.22;;;905.22;;
13368;SDS011;6753;52.520;13.450;2023-02-26T00:55:00;1063.85;;;908.80;;
13368;SDS011;6753;52.520;13.450;2023-02-26T00:55:11;1064.32;;;908.92;;
13368;SDS011;6753;52.520;13.450;2023-02-26T00:55:22;1060.55;;;908.97;;
13368;SDS011;6753;52.520;13.450;2023-02-26T00:55:33;1061.63;;;910.20;;
13368;SDS011;6753;52.520;13.450;2023-02-26T00:55:44;1056.70;;;909.17;;
13368;SDS011;6753;52.520;13.450;2023-02-26T00:55:55;1053.65;;;908.40;;
13368;SDS011;6753;52.520;13.450;2023-02-26T00:56:06;1050.97;;;908.42;;
13368;SDS011;6753;52.520;13.450;2023-02-26T00:56:17;1059.47;;;913.25;;
13368;SDS011;6753;52.520;13.450;2023-02-26T00:56:28;1074.28;;;920.75;;
13368;SDS011;6753;52.520;13.450;2023-02-26T00:56:38;1099.93;;;932.00;;
13368;SDS011;6753;52.520;13.450;2023-02-26T00:56:50;1117.13;;;942.15;;
13368;SDS011;6753;52.520;13.450;2023-02-26T00:57:02;1125.97;;;946.55;;
13368;SDS011;6753;52.520;13.450;2023-02-26T00:57:15;1129.53;;;948.40;;
13368;SDS011;6753;52.520;13.450;2023-02-26T00:57:26;1129.35;;;950.13;;
13368;SDS011;6753;52.520;13.450;2023-02-26T00:57:37;1120.72;;;949.17;;
13368;SDS011;6753;52.520;13.450;2023-02-26T00:57:48;1123.72;;;950.75;;
13368;SDS011;6753;52.520;13.450;2023-02-26T00:57:59;1127.05;;;953.40;;
13368;SDS011;6753;52.520;13.450;2023-02-26T00:58:10;1131.43;;;955.00;;
13368;SDS011;6753;52.520;13.450;2023-02-26T00:58:22;1131.75;;;953.70;;
13368;SDS011;6753;52.520;13.450;2023-02-26T00:58:33;1124.00;;;947.40;;
13368;SDS011;6753;52.520;13.450;2023-02-26T00:58:44;1104.65;;;937.75;;
13368;SDS011;6753;52.520;13.450;2023-02-26T00:58:55;1096.30;;;932.28;;
13368;SDS011;6753;52.520;13.450;2023-02-26T00:59:06;1086.53;;;927.50;;
13368;SDS011;6753;52.520;13.450;2023-02-26T00:59:18;1082.00;;;924.33;;
13368;SDS011;6753;52.520;13.450;2023-02-26T00:59:29;1080.43;;;924.25;;
13368;SDS011;6753;52.520;13.450;2023-02-26T00:59:39;1082.70;;;926.58;;
13368;SDS011;6753;52.520;13.450;2023-02-26T00:59:50;1091.70;;;930.15;;
13368;SDS011;6753;52.520;13.450;2023-02-26T01:00:02;1093.45;;;932.17;;
13368;SDS011;6753;52.520;13.450;2023-02-26T01:00:15;1092.72;;;932.00;;
13368;SDS011;6753;52.520;13.450;2023-02-26T01:00:26;1084.68;;;926.83;;
13368;SDS011;6753;52.520;13.450;2023-02-26T01:00:37;1090.90;;;928.80;;
13368;SDS011;6753;52.520;13.450;2023-02-26T01:00:48;1091.10;;;929.67;;
13368;SDS011;6753;52.520;13.450;2023-02-26T01:00:59;1089.25;;;927.15;;
13368;SDS011;6753;52.520;13.450;2023-02-26T01:01:10;1091.82;;;929.25;;
13368;SDS011;6753;52.520;13.450;2023-02-26T01:01:20;1099.47;;;934.80;;
13368;SDS011;6753;52.520;13.450;2023-02-26T01:01:31;1106.22;;;939.45;;
13368;SDS011;6753;52.520;13.450;2023-02-26T01:01:43;1101.00;;;937.03;;
13368;SDS011;6753;52.520;13.450;2023-02-26T01:01:54;1101.80;;;937.83;;
13368;SDS011;6753;52.520;13.450;2023-02-26T01:02:05;1095.67;;;934.27;;
13368;SDS011;6753;52.520;13.450;2023-02-26T01:02:16;1090.05;;;931.67;;
13368;SDS011;6753;52.520;13.450;2023-02-26T01:02:27;1104.22;;;940.65;;
13368;SDS011;6753;52.520;13.450;2023-02-26T01:02:38;1103.28;;;939.70;;
13368;SDS011;6753;52.520;13.450;2023-02-26T01:02:50;1111.63;;;942.47;;
13368;SDS011;6753;52.520;13.450;2023-02-26T01:03:02;1119.50;;;947.50;;
13368;SDS011;6753;52.520;13.450;2023-02-26T01:03:14;1139.07;;;958.15;;
13368;SDS011;6753;52.520;13.450;2023-02-26T01:03:25;1127.10;;;951.97;;
13368;SDS011;6753;52.520;13.450;2023-02-26T01:03:36;1129.20;;;953.25;;
13368;SDS011;6753;52.520;13.450;2023-02-26T01:03:48;1119.70;;;949.85;;
13368;SDS011;6753;52.520;13.450;2023-02-26T01:03:59;1107.78;;;942.78;;
13368;SDS011;6753;52.520;13.450;2023-02-26T01:04:11;1088.78;;;931.10;;
13368;SDS011;6753;52.520;13.450;2023-02-26T01:04:23;1076.45;;;922.72;;
13368;SDS011;6753;52.520;13.450;2023-02-26T01:04:35;1060.65;;;914.80;;
13368;SDS011;6753;52.520;13.450;2023-02-26T01:04:47;1059.32;;;912.95;;
13368;SDS011;6753;52.520;13.450;2023-02-26T01:04:58;1060.93;;;913.65;;
13368;SDS011;6753;52.520;13.450;2023-02-26T01:05:10;1063.07;;;917.33;;
13368;SDS011;6753;52.520;13.450;2023-02-26T01:05:22;1071.03;;;919.72;;
13368;SDS011;6753;52.520;13.450;2023-02-26T01:05:33;1071.78;;;920.15;;
13368;SDS011;6753;52.520;13.450;2023-02-26T01:05:45;1065.95;;;916.60;;
13368;SDS011;6753;52.520;13.450;2023-02-26T01:05:56;1065.93;;;917.55;;
13368;SDS011;6753;52.520;13.450;2023-02-26T01:06:09;1074.20;;;918.03;;
13368;SDS011;6753;52.520;13.450;2023-02-26T01:06:20;1076.38;;;919.33;;
13368;SDS011;6753;52.520;13.450;2023-02-26T01:06:36;1085.18;;;924.15;;
13368;SDS011;6753;52.520;13.450;2023-02-26T01:06:52;1104.40;;;931.10;;
13368;SDS011;6753;52.520;13.450;2023-02-26T01:07:04;1113.50;;;936.78;;
13368;SDS011;6753;52.520;13.450;2023-02-26T01:07:20;1120.32;;;942.15;;
13368;SDS011;6753;52.520;13.450;2023-02-26T01:07:34;1123.97;;;943.67;;
13368;SDS011;6753;52.520;13.450;2023-02-26T01:07:53;1124.05;;;947.33;;
13368;SDS011;6753;52.520;13.450;2023-02-26T01:08:12;1128.38;;;948.88;;
13368;SDS011;6753;52.520;13.450;2023-02-26T01:08:27;1131.68;;;950.47;;
13368;SDS011;6753;52.520;13.450;2023-02-26T01:08:44;1130.32;;;948.65;;
13368;SDS011;6753;52.520;13.450;2023-02-26T01:09:02;1130.18;;;950.17;;
13368;SDS011;6753;52.520;13.450;2023-02-26T01:09:21;1123.95;;;947.80;;
13368;SDS011;6753;52.520;13.450;2023-02-26T01:09:35;1119.75;;;946.83;;
13368;SDS011;6753;52.520;13.450;2023-02-26T01:09:48;1120.50;;;948.05;;
13368;SDS011;6753;52.520;13.450;2023-02-26T01:09:59;1115.97;;;946.90;;
13368;SDS011;6753;52.520;13.450;2023-02-26T01:10:10;1108.65;;;943.65;;
13368;SDS011;6753;52.520;13.450;2023-02-26T01:10:23;1095.95;;;939.22;;
13368;SDS011;6753;52.520;13.450;2023-02-26T01:10:34;1091.90;;;936.30;;
13368;SDS011;6753;52.520;13.450;2023-02-26T01:10:46;1087.55;;;932.60;;
13368;SDS011;6753;52.520;13.450;2023-02-26T01:10:57;1082.32;;;928.60;;
13368;SDS011;6753;52.520;13.450;2023-02-26T01:11:08;1086.55;;;929.15;;
13368;SDS011;6753;52.520;13.450;2023-02-26T01:11:19;1097.22;;;933.28;;
13368;SDS011;6753;52.520;13.450;2023-02-26T01:11:31;1106.72;;;937.20;;
13368;SDS011;6753;52.520;13.450;2023-02-26T01:11:43;1110.13;;;940.58;;
13368;SDS011;6753;52.520;13.450;2023-02-26T01:11:56;1116.88;;;943.95;;
13368;SDS011;6753;52.520;13.450;2023-02-26T01:12:11;1116.95;;;943.70;;
13368;SDS011;6753;52.520;13.450;2023-02-26T01:12:22;1110.53;;;940.13;;
13368;SDS011;6753;52.520;13.450;2023-02-26T01:12:33;1104.28;;;938.80;;
13368;SDS011;6753;52.520;13.450;2023-02-26T01:12:45;1099.88;;;937.03;;
13368;SDS011;6753;52.520;13.450;2023-02-26T01:12:56;1090.57;;;933.00;;
13368;SDS011;6753;52.520;13.450;2023-02-26T01:13:07;1088.82;;;932.10;;
13368;SDS011;6753;52.520;13.450;2023-02-26T01:13:19;1087.68;;;929.80;;